Time;durP1;ratioP1;P1;durP2;ratioP2;P2;SDS_P1;SDS_P2;PMS_P1;PMS_P2;Temp;Humidity;BMP_temperature;BMP_pressure;BME280_temperature;BME280_humidity;BME280_pressure;Samples;Min_cycle;Max_cycle;Signal;HPM_P1;HPM_P2
2022/08/12 00:42:57;;;;;;;2.60;1.70;;;26.20;66.10;;;;;;4994702;28;20105;-86
2022/08/12 00:45:22;;;;;;;2.72;1.85;;;26.20;65.90;;;;;;4995941;28;20113;-85
2022/08/12 00:47:53;;;;;;;3.08;2.17;;;26.20;66.00;;;;;;4997083;28;20030;-86
2022/08/12 00:50:21;;;;;;;4.72;1.80;;;26.10;65.80;;;;;;4997384;28;20077;-85
2022/08/12 00:52:49;;;;;;;2.85;1.80;;;26.10;66.00;;;;;;5012696;28;20105;-85
2022/08/12 00:55:17;;;;;;;4.10;2.10;;;26.10;65.90;;;;;;5013110;28;20037;-85
2022/08/12 00:57:48;;;;;;;5.18;2.17;;;26.00;65.90;;;;;;4984242;28;20022;-85
2022/08/12 01:00:25;;;;;;;4.55;2.10;;;26.00;65.90;;;;;;4996414;28;20533;-84
2022/08/12 01:02:56;;;;;;;2.67;1.90;;;26.00;65.80;;;;;;4996127;28;20026;-85
2022/08/12 01:11:27;;;;;;;4.22;1.75;;;25.90;66.10;;;;;;4984155;28;20118;-85
2022/08/12 01:11:33;;;;;;;4.15;2.10;;;25.80;66.00;;;;;;4996857;28;20034;-84
2022/08/12 01:14:01;;;;;;;4.47;1.90;;;25.80;66.40;;;;;;4996534;28;20023;-85
2022/08/12 01:16:35;;;;;;;3.72;2.03;;;25.70;66.40;;;;;;4996079;28;20026;-85
2022/08/12 01:19:02;;;;;;;2.67;1.80;;;25.70;66.20;;;;;;4996400;28;20026;-85
2022/08/12 01:21:44;;;;;;;1.77;1.52;;;25.70;66.30;;;;;;4995739;28;20033;-87
2022/08/12 01:24:47;;;;;;;5.00;1.88;;;25.60;66.00;;;;;;5005617;28;20034;-85
2022/08/12 01:27:14;;;;;;;4.25;1.90;;;25.60;66.30;;;;;;4992816;28;20107;-85
2022/08/12 01:29:44;;;;;;;4.65;2.00;;;25.60;66.10;;;;;;5004010;28;20033;-85
2022/08/12 01:32:15;;;;;;;2.28;1.92;;;25.60;66.40;;;;;;5004345;28;20030;-85
2022/08/12 01:35:09;;;;;;;3.00;1.80;;;25.50;66.40;;;;;;5022488;28;20105;-85
2022/08/12 01:38:01;;;;;;;2.88;1.95;;;25.50;66.60;;;;;;4995740;28;20061;-85
2022/08/12 01:40:33;;;;;;;3.83;2.30;;;25.50;66.90;;;;;;4995059;28;20026;-85
2022/08/12 01:43:23;;;;;;;3.65;2.10;;;25.40;66.80;;;;;;5011620;28;20031;-85
2022/08/12 01:46:05;;;;;;;3.67;2.00;;;25.40;67.00;;;;;;4994866;28;20023;-85
2022/08/12 01:48:49;;;;;;;5.63;2.35;;;25.40;67.00;;;;;;5012682;28;20034;-85
2022/08/12 01:51:39;;;;;;;3.50;2.33;;;25.30;67.20;;;;;;4996988;28;20026;-85
2022/08/12 01:54:12;;;;;;;3.95;1.90;;;25.30;67.50;;;;;;4995453;28;20100;-85
2022/08/12 01:57:01;;;;;;;4.53;2.10;;;25.30;67.70;;;;;;4994106;28;20030;-85
2022/08/12 01:59:49;;;;;;;2.65;1.88;;;25.30;67.60;;;;;;4999050;28;20030;-85
2022/08/12 02:02:23;;;;;;;4.93;2.50;;;25.20;68.10;;;;;;4994824;28;20015;-85
2022/08/12 02:11:27;;;;;;;4.40;1.90;;;25.10;67.40;;;;;;4995625;28;20586;-86
2022/08/12 02:14:28;;;;;;;2.20;1.73;;;25.10;67.70;;;;;;4994234;28;20019;-85
2022/08/12 02:17:07;;;;;;;4.20;2.25;;;25.10;68.00;;;;;;5010380;28;20113;-85
2022/08/12 02:19:48;;;;;;;3.25;2.00;;;25.00;68.00;;;;;;4994429;28;20038;-84
2022/08/12 02:22:41;;;;;;;5.25;1.92;;;25.00;68.00;;;;;;4995386;28;20030;-85
2022/08/12 02:25:11;;;;;;;4.00;2.08;;;25.00;68.10;;;;;;4999737;28;20049;-85
2022/08/12 02:27:51;;;;;;;5.97;2.30;;;24.90;68.10;;;;;;4993725;28;20034;-86
2022/08/12 02:30:20;;;;;;;2.95;2.10;;;24.90;68.10;;;;;;5010523;28;20030;-84
2022/08/12 02:32:48;;;;;;;3.97;1.83;;;24.80;68.20;;;;;;4993598;28;20022;-85
2022/08/12 02:35:18;;;;;;;3.75;1.98;;;24.80;68.20;;;;;;4995232;28;20015;-85
2022/08/12 02:37:48;;;;;;;4.38;2.13;;;24.80;68.50;;;;;;4994062;28;20112;-85
2022/08/12 02:40:16;;;;;;;5.88;2.00;;;24.70;68.60;;;;;;5024252;28;20452;-84
2022/08/12 02:43:07;;;;;;;3.13;1.98;;;24.70;68.60;;;;;;4993645;28;20030;-85
2022/08/12 02:45:40;;;;;;;2.15;1.95;;;24.60;68.50;;;;;;4993961;28;20490;-85
2022/08/12 02:48:16;;;;;;;4.03;2.08;;;24.60;68.80;;;;;;4994079;28;20034;-85
2022/08/12 02:50:50;;;;;;;3.97;2.20;;;24.60;68.80;;;;;;4980529;28;20058;-85
2022/08/12 02:53:17;;;;;;;3.58;2.03;;;24.60;69.10;;;;;;4993521;28;20444;-85
2022/08/12 02:55:50;;;;;;;3.65;2.17;;;24.50;69.10;;;;;;4993584;28;20034;-85
2022/08/12 02:58:17;;;;;;;5.60;2.67;;;24.50;69.10;;;;;;4993724;28;20128;-85
2022/08/12 03:00:43;;;;;;;3.35;1.90;;;24.50;69.20;;;;;;4993155;28;20027;-84
2022/08/12 03:03:15;;;;;;;3.38;2.17;;;24.40;69.10;;;;;;4993951;28;20034;-85
2022/08/12 03:05:53;;;;;;;4.95;2.40;;;24.40;69.00;;;;;;4993734;28;20031;-85
2022/08/12 03:08:25;;;;;;;3.30;2.33;;;24.40;69.20;;;;;;4993741;28;20041;-84
2022/08/12 03:10:53;;;;;;;4.15;2.20;;;24.40;69.40;;;;;;4993304;28;20030;-85
2022/08/12 03:13:25;;;;;;;3.17;2.25;;;24.30;69.40;;;;;;4993842;28;20097;-85
2022/08/12 03:15:54;;;;;;;3.25;1.90;;;24.30;69.60;;;;;;4993517;28;20029;-84
2022/08/12 03:18:31;;;;;;;4.00;2.45;;;24.20;69.70;;;;;;4994093;28;20109;-85
2022/08/12 03:20:59;;;;;;;4.03;2.15;;;24.20;69.90;;;;;;4993254;28;20054;-85
2022/08/12 03:23:26;;;;;;;2.63;2.00;;;24.20;69.80;;;;;;4993862;28;20458;-84
2022/08/12 03:25:56;;;;;;;4.80;3.03;;;24.20;69.90;;;;;;4993120;28;20041;-84
2022/08/12 03:31:10;;;;;;;4.90;2.47;;;24.10;70.10;;;;;;4981059;28;20382;-85
2022/08/12 03:33:43;;;;;;;4.47;2.60;;;24.10;70.30;;;;;;4993597;28;20022;-84
2022/08/12 03:36:10;;;;;;;4.18;2.33;;;24.10;70.30;;;;;;4993643;28;20030;-85
2022/08/12 03:38:42;;;;;;;4.50;2.38;;;24.00;70.30;;;;;;5006949;28;20058;-85
2022/08/12 03:41:34;;;;;;;6.45;2.60;;;24.00;70.40;;;;;;4994171;28;20023;-85
2022/08/12 04:01:06;;;;;;;3.35;2.10;;;23.80;70.70;;;;;;4989397;28;20046;-85
2022/08/12 04:03:51;;;;;;;3.85;2.33;;;23.80;70.60;;;;;;4973890;28;20478;-85
2022/08/12 04:06:30;;;;;;;5.15;2.42;;;23.80;70.70;;;;;;4993135;28;20026;-85
2022/08/12 04:08:57;;;;;;;4.13;2.35;;;23.80;71.00;;;;;;4991603;28;20385;-85
2022/08/12 04:14:19;;;;;;;8.45;2.28;;;23.70;71.10;;;;;;5009030;28;20500;-85
2022/08/12 04:16:48;;;;;;;6.45;2.53;;;23.70;71.20;;;;;;4994202;28;20069;-86
2022/08/12 04:19:16;;;;;;;4.03;2.30;;;23.60;71.10;;;;;;4995546;28;20034;-85
2022/08/12 04:21:42;;;;;;;6.55;2.30;;;23.60;71.20;;;;;;4998010;28;20085;-85
2022/08/12 04:24:09;;;;;;;4.63;2.28;;;23.60;71.40;;;;;;5012626;28;20034;-85
2022/08/12 04:26:38;;;;;;;4.32;2.50;;;23.60;71.40;;;;;;5013217;28;20026;-85
2022/08/12 04:29:05;;;;;;;4.75;2.72;;;23.60;71.40;;;;;;5001064;28;20445;-85
2022/08/12 04:31:40;;;;;;;6.22;2.80;;;23.50;71.20;;;;;;5004716;28;20031;-83
2022/08/12 04:34:08;;;;;;;6.18;2.70;;;23.50;71.40;;;;;;5018711;28;20425;-83
2022/08/12 04:36:37;;;;;;;5.15;2.50;;;23.50;71.60;;;;;;4997984;28;20022;-85
2022/08/12 04:39:04;;;;;;;5.75;2.85;;;23.50;71.60;;;;;;4980587;28;20428;-85
2022/08/12 04:41:30;;;;;;;5.60;2.83;;;23.50;72.40;;;;;;5008806;28;20038;-85
2022/08/12 04:44:02;;;;;;;4.53;2.75;;;23.40;71.70;;;;;;4996229;28;20053;-85
2022/08/12 04:46:27;;;;;;;5.65;2.95;;;23.40;71.70;;;;;;4984101;28;20045;-85
2022/08/12 04:48:53;;;;;;;8.73;3.22;;;23.40;71.80;;;;;;4997088;28;20034;-85
2022/08/12 04:51:21;;;;;;;4.28;2.70;;;23.40;72.00;;;;;;4998105;28;20023;-84
2022/08/12 04:53:48;;;;;;;4.05;2.40;;;23.30;72.00;;;;;;4999240;28;20046;-85
2022/08/12 04:56:14;;;;;;;5.53;2.55;;;23.30;71.80;;;;;;4996353;28;20038;-85
2022/08/12 04:58:41;;;;;;;8.55;3.03;;;23.30;72.00;;;;;;5012610;28;20081;-85
2022/08/12 05:01:12;;;;;;;6.43;2.50;;;23.30;72.20;;;;;;5010261;28;20029;-85
2022/08/12 05:03:50;;;;;;;7.85;3.00;;;23.30;72.40;;;;;;4976667;28;20080;-85
2022/08/12 05:06:16;;;;;;;4.95;2.90;;;23.30;72.60;;;;;;4978557;28;20046;-85
2022/08/12 05:08:42;;;;;;;7.53;3.00;;;23.20;72.60;;;;;;4995463;28;20410;-85
2022/08/12 05:11:11;;;;;;;9.55;3.35;;;23.20;73.20;;;;;;4995823;28;20113;-86
2022/08/12 05:13:50;;;;;;;8.95;2.45;;;23.20;72.70;;;;;;4996404;28;20041;-85
2022/08/12 05:16:21;;;;;;;5.40;3.10;;;23.20;72.80;;;;;;4995996;28;20034;-85
2022/08/12 05:18:48;;;;;;;7.25;2.90;;;23.20;72.90;;;;;;4995685;28;20042;-85
2022/08/12 05:21:17;;;;;;;4.38;2.58;;;23.20;72.90;;;;;;5021616;28;20463;-85
2022/08/12 05:23:42;;;;;;;5.75;2.72;;;23.10;73.00;;;;;;4995209;28;20394;-85
2022/08/12 05:26:09;;;;;;;5.25;2.90;;;23.20;73.30;;;;;;4995129;28;20023;-85
2022/08/12 05:28:40;;;;;;;8.60;3.35;;;23.10;73.60;;;;;;4995574;28;20497;-83
2022/08/12 05:31:06;;;;;;;8.73;3.35;;;23.10;73.80;;;;;;4994051;28;20045;-83
2022/08/12 05:33:39;;;;;;;6.65;3.28;;;23.10;73.60;;;;;;4995611;28;20150;-84
2022/08/12 05:36:11;;;;;;;5.63;3.13;;;23.10;73.30;;;;;;4980058;28;20070;-84
2022/08/12 05:38:55;;;;;;;6.85;3.00;;;23.10;73.40;;;;;;4995706;28;20399;-85
2022/08/12 05:41:33;;;;;;;5.07;3.10;;;23.10;73.20;;;;;;4995480;28;20023;-84
2022/08/12 05:44:15;;;;;;;8.82;3.40;;;23.10;73.30;;;;;;4996752;28;20035;-85
2022/08/12 05:46:41;;;;;;;7.88;3.10;;;23.10;73.80;;;;;;4997433;28;20027;-85
2022/08/12 05:49:12;;;;;;;4.88;3.15;;;23.10;73.80;;;;;;4996574;28;20034;-84
2022/08/12 05:51:38;;;;;;;6.78;3.10;;;23.10;73.60;;;;;;4994795;28;20026;-85
2022/08/12 05:54:04;;;;;;;5.38;3.30;;;23.10;73.30;;;;;;4995387;28;20046;-86
2022/08/12 05:56:33;;;;;;;6.38;3.33;;;23.10;73.20;;;;;;4994162;28;20026;-84
2022/08/12 05:59:06;;;;;;;4.63;2.92;;;23.10;73.60;;;;;;4998203;28;20514;-87
2022/08/12 06:01:32;;;;;;;6.57;3.30;;;23.10;73.80;;;;;;4978649;28;20030;-84
2022/08/12 06:03:59;;;;;;;4.60;2.90;;;23.10;73.80;;;;;;4994976;28;20096;-85
2022/08/12 06:06:25;;;;;;;5.25;3.00;;;23.10;73.60;;;;;;5010609;28;20108;-85
2022/08/12 06:08:57;;;;;;;5.03;3.00;;;23.10;73.70;;;;;;4999870;28;20030;-85
2022/08/12 06:11:24;;;;;;;7.30;3.38;;;23.20;73.80;;;;;;4994546;28;20387;-85
2022/08/12 06:14:07;;;;;;;5.00;3.28;;;23.20;73.50;;;;;;4997650;28;20484;-85
2022/08/12 06:16:38;;;;;;;5.45;3.35;;;23.20;73.50;;;;;;5010440;28;20030;-84
2022/08/12 06:19:09;;;;;;;7.45;3.30;;;23.20;73.50;;;;;;5002361;28;20022;-84
2022/08/12 06:21:37;;;;;;;6.38;3.13;;;23.20;73.50;;;;;;4991138;28;20027;-84
2022/08/12 06:24:10;;;;;;;11.52;3.30;;;23.20;73.20;;;;;;4997917;28;20030;-88
2022/08/12 06:26:36;;;;;;;8.63;3.60;;;23.20;72.60;;;;;;5009404;28;20030;-88
2022/08/12 06:29:02;;;;;;;6.45;3.33;;;23.20;72.50;;;;;;4976935;28;20433;-77
2022/08/12 06:31:27;;;;;;;4.97;3.10;;;23.20;72.30;;;;;;5008805;28;20030;-77
2022/08/12 06:33:54;;;;;;;7.47;3.17;;;23.20;72.60;;;;;;4992500;28;20117;-77
2022/08/12 06:36:22;;;;;;;4.15;3.10;;;23.20;72.80;;;;;;4992241;28;20856;-76
2022/08/12 06:38:48;;;;;;;4.75;3.13;;;23.20;73.10;;;;;;5009177;28;20030;-77
2022/08/12 06:43:59;;;;;;;6.55;2.90;;;23.30;73.50;;;;;;4993294;28;20073;-78
2022/08/12 06:46:27;;;;;;;5.80;3.35;;;23.30;73.50;;;;;;4992274;28;20057;-77
2022/08/12 06:48:57;;;;;;;4.43;2.92;;;23.30;73.70;;;;;;4994093;28;20035;-77
2022/08/12 06:51:29;;;;;;;4.45;3.05;;;23.40;74.40;;;;;;4993188;28;20133;-76
2022/08/12 06:53:55;;;;;;;4.40;2.78;;;23.40;73.20;;;;;;4993303;28;20089;-77
2022/08/12 06:56:22;;;;;;;4.82;3.20;;;23.40;72.70;;;;;;4993063;28;20030;-77
2022/08/12 06:58:47;;;;;;;6.30;2.88;;;23.50;72.70;;;;;;5007903;28;20078;-77
2022/08/12 07:01:13;;;;;;;7.25;2.70;;;23.50;73.00;;;;;;4991782;28;20026;-77
2022/08/12 07:03:39;;;;;;;9.05;2.67;;;23.50;73.20;;;;;;4992508;28;20023;-77
2022/08/12 07:06:10;;;;;;;6.45;2.95;;;23.50;73.60;;;;;;4993055;28;20030;-77
2022/08/12 07:08:36;;;;;;;;;;;23.60;73.80;;;;;;4978253;28;20057;-76
2022/08/12 07:11:05;;;;;;;5.97;2.95;;;23.70;73.90;;;;;;4990337;28;20090;-77
2022/08/12 07:13:41;;;;;;;6.47;3.22;;;23.70;73.70;;;;;;4992173;28;20029;-77
2022/08/12 07:16:09;;;;;;;5.30;3.10;;;23.70;73.20;;;;;;4989922;28;20022;-77
2022/08/12 07:18:35;;;;;;;4.95;2.95;;;23.70;72.60;;;;;;4993618;28;20030;-77
2022/08/12 07:21:03;;;;;;;4.50;2.85;;;23.80;73.20;;;;;;4991860;28;20030;-77
2022/08/12 07:23:32;;;;;;;4.85;3.03;;;23.80;73.40;;;;;;4993098;28;20475;-77
2022/08/12 07:25:57;;;;;;;7.55;3.42;;;23.90;73.50;;;;;;4993205;28;20029;-77
2022/08/12 07:28:28;;;;;;;3.78;2.53;;;24.00;73.40;;;;;;4992738;28;20034;-76
2022/08/12 07:30:55;;;;;;;5.50;2.72;;;24.00;72.50;;;;;;4993249;28;20084;-77
2022/08/12 07:33:23;;;;;;;4.93;2.95;;;24.10;72.10;;;;;;4991528;28;20394;-77
2022/08/12 07:35:52;;;;;;;5.53;2.97;;;24.20;72.10;;;;;;4991596;28;20057;-77
2022/08/12 07:38:26;;;;;;;6.43;3.00;;;24.20;71.30;;;;;;4991697;28;20069;-76
2022/08/12 07:41:16;;;;;;;4.38;2.90;;;24.30;70.70;;;;;;5006583;28;20026;-76
2022/08/12 07:43:48;;;;;;;6.78;2.90;;;24.30;70.80;;;;;;4993078;28;20097;-78
2022/08/12 07:46:18;;;;;;;3.80;2.70;;;24.40;70.60;;;;;;4991648;28;20030;-77
2022/08/12 07:48:47;;;;;;;5.60;3.35;;;24.50;70.50;;;;;;4990196;28;20109;-77
2022/08/12 07:51:14;;;;;;;5.60;2.63;;;24.50;70.00;;;;;;4992054;28;20482;-77
2022/08/12 07:53:40;;;;;;;4.30;2.63;;;24.60;69.50;;;;;;4992942;28;20042;-77
2022/08/12 07:56:08;;;;;;;5.05;3.38;;;24.70;69.30;;;;;;4993697;28;20080;-77
2022/08/12 07:58:38;;;;;;;6.07;3.00;;;24.80;68.70;;;;;;4995142;28;20151;-77
2022/08/12 08:01:14;;;;;;;5.90;3.10;;;24.80;67.70;;;;;;4994095;28;20053;-77
2022/08/12 08:04:54;;;;;;;4.15;2.60;;;24.90;67.50;;;;;;4996239;28;20490;-77
2022/08/12 08:06:26;;;;;;;5.35;2.60;;;25.00;68.00;;;;;;4995682;28;20033;-77
2022/08/12 08:08:55;;;;;;;5.65;2.72;;;25.10;68.20;;;;;;4996019;28;20038;-77
2022/08/12 08:14:07;;;;;;;3.72;2.60;;;25.30;68.20;;;;;;4993858;28;20033;-77
2022/08/12 08:16:36;;;;;;;4.38;2.65;;;25.40;68.20;;;;;;4995364;28;20089;-76
2022/08/12 08:19:02;;;;;;;4.93;2.38;;;25.50;68.40;;;;;;4994342;28;20050;-77
2022/08/12 08:21:31;;;;;;;5.90;2.90;;;25.50;68.00;;;;;;4994222;28;20029;-76
2022/08/12 08:24:15;;;;;;;13.13;2.95;;;25.60;67.10;;;;;;4995523;28;20026;-76
2022/08/12 08:26:43;;;;;;;10.98;2.58;;;25.70;67.00;;;;;;4995654;28;20027;-76
2022/08/12 08:29:11;;;;;;;7.22;2.90;;;25.80;67.60;;;;;;4995061;28;20038;-76
2022/08/12 08:31:42;;;;;;;6.38;2.30;;;25.90;68.00;;;;;;4996263;28;20110;-76
2022/08/12 08:34:14;;;;;;;5.50;2.80;;;26.00;68.10;;;;;;4995581;28;20488;-76
2022/08/12 08:36:40;;;;;;;4.82;2.40;;;26.10;68.30;;;;;;4996056;28;20061;-77
2022/08/12 08:39:07;;;;;;;4.25;2.67;;;26.20;68.20;;;;;;4996105;28;20474;-78
2022/08/12 08:44:17;;;;;;;8.07;2.65;;;26.40;67.30;;;;;;4995649;28;20037;-77
2022/08/12 08:46:43;;;;;;;5.15;2.80;;;26.50;66.50;;;;;;4994736;28;20447;-77
2022/08/12 08:49:10;;;;;;;5.18;2.70;;;26.50;66.30;;;;;;4994604;28;20050;-77
2022/08/12 08:51:37;;;;;;;5.25;2.40;;;26.60;66.20;;;;;;4995334;28;20027;-76
2022/08/12 08:54:05;;;;;;;3.90;2.30;;;26.70;65.30;;;;;;4995350;28;20061;-75
2022/08/12 08:56:32;;;;;;;3.10;2.10;;;26.70;64.80;;;;;;4994227;28;20027;-75
2022/08/12 08:58:58;;;;;;;5.10;2.58;;;26.80;65.30;;;;;;4994459;28;20065;-75
2022/08/12 09:01:24;;;;;;;4.70;2.33;;;26.90;65.80;;;;;;4995279;28;20061;-75
2022/08/12 09:03:50;;;;;;;4.85;2.40;;;27.00;66.10;;;;;;4995476;28;20038;-75
2022/08/12 09:06:16;;;;;;;4.55;2.42;;;27.10;66.30;;;;;;4995295;28;20093;-74
2022/08/12 09:08:42;;;;;;;5.40;2.28;;;27.20;66.10;;;;;;5010025;28;20034;-75
2022/08/12 09:13:52;;;;;;;3.95;2.25;;;27.30;66.30;;;;;;4981285;28;20069;-75
2022/08/12 09:16:19;;;;;;;6.93;2.50;;;27.40;66.40;;;;;;4995203;28;20058;-73
2022/08/12 09:18:45;;;;;;;5.95;2.90;;;27.40;66.20;;;;;;4995112;28;20446;-75
2022/08/12 09:21:12;;;;;;;3.63;2.30;;;27.50;66.10;;;;;;4993194;28;20101;-75
2022/08/12 09:23:38;;;;;;;4.35;2.70;;;27.60;65.60;;;;;;4993407;28;20026;-75
2022/08/12 09:26:04;;;;;;;3.70;2.03;;;27.70;64.50;;;;;;4992770;28;20038;-75
2022/08/12 09:28:32;;;;;;;4.53;2.33;;;27.80;64.00;;;;;;4994767;28;20092;-75
2022/08/12 09:30:58;;;;;;;3.58;2.17;;;27.80;64.20;;;;;;4994406;28;20553;-75
2022/08/12 09:33:32;;;;;;;6.15;2.38;;;27.90;64.00;;;;;;4993987;28;20478;-75
2022/08/12 09:36:03;;;;;;;5.05;2.13;;;28.00;63.70;;;;;;4994534;28;20486;-75
2022/08/12 09:38:29;;;;;;;4.18;2.25;;;28.00;63.30;;;;;;4994898;28;20033;-74
2022/08/12 09:40:56;;;;;;;6.93;2.22;;;28.10;62.80;;;;;;4993627;28;20037;-75
2022/08/12 09:46:07;;;;;;;3.65;1.83;;;28.20;62.30;;;;;;4986530;28;20034;-85
2022/08/12 09:48:33;;;;;;;3.90;2.05;;;28.30;59.40;;;;;;4992470;28;20042;-85
2022/08/12 09:50:59;;;;;;;3.83;2.17;;;28.40;58.50;;;;;;5013384;28;20030;-85
2022/08/12 09:53:26;;;;;;;7.50;2.35;;;28.40;58.00;;;;;;4980163;28;20189;-85
2022/08/12 09:55:58;;;;;;;2.92;2.08;;;28.50;57.20;;;;;;4996498;28;20374;-84
2022/08/12 09:58:29;;;;;;;3.45;2.10;;;28.60;57.60;;;;;;4995207;28;20096;-86
2022/08/12 10:01:00;;;;;;;4.57;2.53;;;28.60;57.90;;;;;;4980255;28;20034;-86
2022/08/12 10:03:30;;;;;;;5.13;2.33;;;28.70;58.10;;;;;;4995796;28;20032;-85
2022/08/12 10:05:57;;;;;;;4.47;2.17;;;28.80;57.60;;;;;;4996240;28;20038;-85
2022/08/12 10:08:31;;;;;;;5.05;2.20;;;28.90;57.50;;;;;;4996389;28;20041;-86
2022/08/12 10:13:45;;;;;;;3.97;2.28;;;29.00;57.30;;;;;;4997774;28;20101;-85
2022/08/12 10:16:17;;;;;;;4.38;1.95;;;29.10;57.30;;;;;;4996428;28;20109;-86
2022/08/12 10:18:55;;;;;;;4.00;2.28;;;29.20;56.80;;;;;;4996050;28;20026;-85
2022/08/12 10:21:40;;;;;;;3.00;1.85;;;29.30;56.60;;;;;;4996663;28;20097;-85
2022/08/12 10:24:09;;;;;;;3.40;2.17;;;29.30;56.20;;;;;;4977322;28;20045;-84
2022/08/12 10:32:22;;;;;;;2.22;1.73;;;29.60;55.10;;;;;;4996960;28;20382;-86
2022/08/12 10:34:49;;;;;;;2.83;2.03;;;29.60;55.20;;;;;;5012326;28;20437;-86
2022/08/12 10:37:15;;;;;;;3.55;2.33;;;29.70;54.80;;;;;;4980144;28;20140;-84
2022/08/12 10:39:42;;;;;;;4.78;2.10;;;29.70;54.60;;;;;;4995134;28;20034;-84
2022/08/12 10:45:54;;;;;;;3.20;2.00;;;29.90;55.00;;;;;;4997193;28;20048;-85
2022/08/12 11:06:09;;;;;;;3.70;2.00;;;30.40;52.00;;;;;;5036881;28;20071;-84
2022/08/12 11:11:38;;;;;;;3.67;2.47;;;30.50;52.50;;;;;;5038310;28;19911;-84
2022/08/12 11:14:04;;;;;;;4.35;2.13;;;30.60;52.20;;;;;;5058147;28;20029;-85
2022/08/12 11:16:31;;;;;;;2.85;1.90;;;30.60;51.40;;;;;;5051053;28;20034;-85
2022/08/12 11:19:02;;;;;;;6.20;2.65;;;30.70;51.00;;;;;;5012517;28;20459;-84
2022/08/12 11:21:27;;;;;;;3.33;2.08;;;30.80;51.00;;;;;;5018966;28;20090;-86
2022/08/12 11:23:53;;;;;;;3.15;2.08;;;30.80;50.50;;;;;;5016092;28;20026;-85
2022/08/12 11:26:19;;;;;;;2.90;1.88;;;30.90;50.40;;;;;;5031321;28;20099;-85
2022/08/12 11:28:48;;;;;;;4.78;2.15;;;31.00;50.40;;;;;;5016930;28;20033;-85
2022/08/12 11:38:02;;;;;;;4.03;2.13;;;31.20;50.10;;;;;;5036049;28;20112;-86
2022/08/12 11:43:52;;;;;;;2.90;2.13;;;31.40;49.90;;;;;;5035638;28;20020;-86
2022/08/12 11:46:18;;;;;;;3.15;1.90;;;31.50;49.50;;;;;;5018368;28;20037;-86
2022/08/12 11:48:44;;;;;;;3.47;1.92;;;31.60;49.80;;;;;;5018802;28;20037;-86
2022/08/12 11:51:10;;;;;;;3.45;2.05;;;31.60;49.50;;;;;;5036952;28;20080;-84
2022/08/12 11:53:36;;;;;;;2.88;2.30;;;31.70;49.70;;;;;;5031066;28;20029;-85
2022/08/12 11:56:06;;;;;;;6.65;2.35;;;31.70;49.20;;;;;;5018667;28;20459;-86
2022/08/12 11:58:33;;;;;;;5.03;2.10;;;31.80;48.60;;;;;;5019013;28;20031;-88
2022/08/12 12:00:59;;;;;;;4.05;2.17;;;31.90;48.90;;;;;;4999495;28;20058;-86
2022/08/12 12:04:02;;;;;;;3.00;2.08;;;31.90;48.70;;;;;;5018161;28;20037;-85
2022/08/12 12:06:27;;;;;;;3.28;2.10;;;32.00;48.50;;;;;;5020460;28;20122;-87
2022/08/12 12:08:53;;;;;;;5.78;2.22;;;32.10;48.40;;;;;;5028937;28;20089;-82
2022/08/12 12:11:23;;;;;;;3.70;2.08;;;32.10;48.30;;;;;;5018294;28;20018;-85
2022/08/12 12:13:49;;;;;;;7.03;2.83;;;32.20;48.50;;;;;;5029364;28;20022;-84
2022/08/12 12:16:18;;;;;;;3.63;1.92;;;32.30;48.20;;;;;;5030283;28;20046;-84
2022/08/12 12:18:45;;;;;;;3.00;2.20;;;32.30;47.80;;;;;;5033768;28;20026;-88
2022/08/12 12:21:19;;;;;;;5.47;2.30;;;32.40;48.00;;;;;;5049576;28;20030;-88
2022/08/12 12:24:08;;;;;;;5.22;2.20;;;32.50;48.00;;;;;;5030412;28;20007;-88
2022/08/12 12:27:10;;;;;;;;;;;;;;;;;;;;;
2022/08/12 12:30:04;;;;;;;5.03;2.63;;;32.60;47.10;;;;;;5018295;28;20081;-88
2022/08/12 12:32:37;;;;;;;5.72;2.35;;;32.70;46.60;;;;;;5010145;28;20053;-87
2022/08/12 12:35:08;;;;;;;3.33;2.25;;;32.80;46.50;;;;;;5016299;28;20030;-86
2022/08/12 12:37:48;;;;;;;5.18;2.25;;;32.80;46.10;;;;;;5007737;28;20038;-86
2022/08/12 12:40:14;;;;;;;5.75;1.90;;;32.90;46.00;;;;;;5022800;28;20030;-85
2022/08/12 12:42:44;;;;;;;3.95;2.35;;;32.90;45.50;;;;;;5028148;28;20042;-87
2022/08/12 12:45:13;;;;;;;3.08;2.15;;;33.00;44.80;;;;;;5032026;28;20083;-85
2022/08/12 12:47:53;;;;;;;3.72;2.20;;;33.00;44.20;;;;;;5037991;28;20030;-86
2022/08/12 12:50:19;;;;;;;4.90;2.30;;;33.10;44.50;;;;;;5025198;28;20010;-85
2022/08/12 12:52:45;;;;;;;3.25;2.10;;;33.20;44.60;;;;;;5020985;28;20501;-88
2022/08/12 12:55:18;;;;;;;2.92;2.10;;;33.20;44.40;;;;;;5055267;28;20029;-86
2022/08/12 12:57:57;;;;;;;;;;;;;;;;;;;;;
2022/08/12 13:00:23;;;;;;;2.97;2.10;;;33.40;45.20;;;;;;5050186;28;20064;-90
2022/08/12 13:03:00;;;;;;;5.13;2.28;;;33.40;44.20;;;;;;5040417;28;20097;-86
2022/08/12 13:05:35;;;;;;;2.70;2.03;;;33.50;44.00;;;;;;5033617;28;20030;-87
2022/08/12 13:08:03;;;;;;;3.13;2.05;;;33.50;43.70;;;;;;5030888;28;20041;-88
2022/08/12 13:10:31;;;;;;;6.05;2.40;;;33.60;43.60;;;;;;5028046;28;20077;-87
2022/08/12 13:13:01;;;;;;;5.22;2.35;;;33.60;43.60;;;;;;5040340;28;20037;-88
2022/08/12 13:15:29;;;;;;;2.67;2.10;;;33.70;42.80;;;;;;5032862;28;20021;-87
2022/08/12 13:18:03;;;;;;;4.50;2.33;;;33.80;42.00;;;;;;5028379;28;20087;-88
2022/08/12 13:20:30;;;;;;;5.95;2.70;;;33.80;42.00;;;;;;5042812;28;20048;-89
2022/08/12 13:22:58;;;;;;;2.10;1.90;;;33.90;42.30;;;;;;5022733;28;20025;-90
2022/08/12 13:25:26;;;;;;;6.25;2.45;;;33.90;42.00;;;;;;5004701;28;20119;-88
2022/08/12 13:27:51;;;;;;;5.93;2.58;;;33.90;42.20;;;;;;5035969;28;20029;-87
2022/08/12 13:30:20;;;;;;;4.80;2.20;;;34.00;42.20;;;;;;5018115;28;20052;-86
2022/08/12 13:32:58;;;;;;;3.25;2.33;;;34.10;42.40;;;;;;5018131;28;20025;-85
2022/08/12 13:35:25;;;;;;;3.45;2.15;;;34.10;42.60;;;;;;5018292;28;20130;-84
2022/08/12 13:37:56;;;;;;;4.45;2.28;;;34.10;42.70;;;;;;5017706;28;20022;-85
2022/08/12 13:40:23;;;;;;;3.80;2.10;;;34.20;42.80;;;;;;5018035;28;20473;-85
2022/08/12 13:42:51;;;;;;;4.40;2.80;;;34.20;42.80;;;;;;5001808;28;20120;-85
2022/08/12 13:45:17;;;;;;;3.83;2.00;;;34.30;43.30;;;;;;5018562;28;20017;-85
2022/08/12 13:47:54;;;;;;;6.00;2.13;;;34.40;43.80;;;;;;5017632;28;20032;-85
2022/08/12 13:50:28;;;;;;;3.63;2.60;;;34.40;44.00;;;;;;5017543;28;20018;-85
2022/08/12 13:52:55;;;;;;;3.70;2.20;;;34.40;43.80;;;;;;5002692;28;20026;-85
2022/08/12 13:55:24;;;;;;;3.40;2.20;;;34.50;43.10;;;;;;5035297;28;20021;-84
2022/08/12 13:57:53;;;;;;;4.27;2.30;;;34.50;42.90;;;;;;5002042;28;20548;-86
2022/08/12 14:00:19;;;;;;;8.88;3.00;;;34.50;43.00;;;;;;5020486;28;20099;-85
2022/08/12 14:02:48;;;;;;;3.63;2.30;;;34.60;42.50;;;;;;5034141;28;20036;-85
2022/08/12 14:05:16;;;;;;;3.22;2.22;;;34.60;42.20;;;;;;5033988;28;20029;-84
2022/08/12 14:08:06;;;;;;;3.28;2.55;;;34.60;42.10;;;;;;5034641;28;20021;-85
2022/08/12 14:10:42;;;;;;;3.33;2.35;;;34.70;42.30;;;;;;5031544;28;20017;-85
2022/08/12 14:13:12;;;;;;;5.72;2.88;;;34.70;42.20;;;;;;5034685;28;20523;-85
2022/08/12 14:15:45;;;;;;;3.35;2.10;;;34.80;42.40;;;;;;5034841;28;20032;-84
2022/08/12 14:18:16;;;;;;;3.03;2.20;;;34.80;41.60;;;;;;5017078;28;20436;-86
2022/08/12 14:20:44;;;;;;;4.15;2.33;;;34.80;40.90;;;;;;5021226;28;20069;-88
2022/08/12 14:23:11;;;;;;;3.88;1.92;;;34.80;40.10;;;;;;5016635;28;20048;-84
2022/08/12 14:25:39;;;;;;;2.53;2.25;;;34.80;40.20;;;;;;5014696;28;20536;-85
2022/08/12 14:28:10;;;;;;;3.45;2.25;;;34.80;40.50;;;;;;5034318;28;20029;-84
2022/08/12 14:30:52;;;;;;;5.45;2.25;;;34.90;40.30;;;;;;5032347;28;20034;-85
2022/08/12 14:33:22;;;;;;;4.47;2.47;;;34.90;40.40;;;;;;5017081;28;20381;-85
2022/08/12 14:35:49;;;;;;;;;;;34.90;39.60;;;;;;5016408;28;20013;-85
2022/08/12 14:38:21;;;;;;;5.28;2.15;;;35.00;40.10;;;;;;5034333;28;19912;-84
2022/08/12 14:40:55;;;;;;;2.80;2.00;;;35.00;40.10;;;;;;5032643;28;20021;-85
2022/08/12 14:43:40;;;;;;;4.13;2.20;;;34.90;39.80;;;;;;5016581;28;20022;-84
2022/08/12 14:46:11;;;;;;;2.67;2.28;;;35.00;39.70;;;;;;5033806;28;20022;-84
2022/08/12 14:48:45;;;;;;;2.65;2.05;;;35.00;39.90;;;;;;5033805;28;20057;-84
2022/08/12 14:51:12;;;;;;;6.05;1.92;;;35.00;39.80;;;;;;5031890;28;20018;-84
2022/08/12 14:53:40;;;;;;;2.88;2.40;;;35.00;39.90;;;;;;5024570;28;20018;-84
2022/08/12 14:56:07;;;;;;;7.30;2.42;;;35.00;39.50;;;;;;5000523;28;20353;-83
2022/08/12 14:58:32;;;;;;;4.35;2.30;;;35.10;39.60;;;;;;5016222;28;20036;-83
2022/08/12 15:03:43;;;;;;;3.55;2.17;;;35.10;39.90;;;;;;5005287;28;20431;-83
2022/08/12 15:06:10;;;;;;;4.28;2.28;;;35.10;39.40;;;;;;5015957;28;20021;-83
2022/08/12 15:08:41;;;;;;;4.18;2.25;;;35.10;38.90;;;;;;4983757;28;20033;-83
2022/08/12 15:11:16;;;;;;;3.38;1.70;;;35.10;38.70;;;;;;5015411;28;20547;-84
2022/08/12 15:13:48;;;;;;;3.10;2.20;;;35.10;38.80;;;;;;5015917;28;20128;-83
2022/08/12 15:16:15;;;;;;;4.97;2.50;;;35.10;39.40;;;;;;5034024;28;20083;-83
2022/08/12 15:18:42;;;;;;;3.58;1.85;;;35.10;39.70;;;;;;5002456;28;20080;-85
2022/08/12 15:21:11;;;;;;;4.30;2.28;;;35.10;39.40;;;;;;5017233;28;20022;-86
2022/08/12 15:23:38;;;;;;;4.87;2.30;;;35.10;39.40;;;;;;5017034;28;20064;-86